THY2UC LTFH-LTFM
Flight info
| Callsign | THY2UC |
|---|---|
| Flight time | N/A |
| Altitude | 36000 |
| Route | HAVZA UW71 ILHAN UT97 LETBU UL621 EVLAP UW107 GUMRU UT315 NUGBA |
| Aircraft | A21N/M-SDE2E3FGHIRWXY/LB1 |
Departure
| Time | 2026-04-20 21:41 |
|---|---|
| Airport | Samsun-Çarşamba Airport (LTFH) |
Arrival
| Time | N/A |
|---|---|
| Airport | İstanbul Airport (LTFM) |
| Time | Latitude | Longitude | Altitude | Speed | Heading |
|---|---|---|---|---|---|
| 2026-04-20 21:22 | 41.25867 | 36.55515 | 28 ft | 0 kts | 223° |
| 2026-04-20 21:32 | 41.25869 | 36.55517 | 68 ft | 2 kts | 223° |
| 2026-04-20 21:32 | 41.25887 | 36.55539 | 70 ft | 3 kts | 223° |
| 2026-04-20 21:32 | 41.25901 | 36.55565 | 67 ft | 4 kts | 265° |
| 2026-04-20 21:32 | 41.25897 | 36.55599 | 68 ft | 4 kts | 299° |
| 2026-04-20 21:33 | 41.25888 | 36.55617 | 68 ft | 0 kts | 314° |
| 2026-04-20 21:36 | 41.25891 | 36.55613 | 68 ft | 3 kts | 314° |
| 2026-04-20 21:36 | 41.25895 | 36.55606 | 68 ft | 3 kts | 314° |
| 2026-04-20 21:36 | 41.25921 | 36.55571 | 68 ft | 6 kts | 314° |
| 2026-04-20 21:37 | 41.25952 | 36.55528 | 68 ft | 7 kts | 314° |
| 2026-04-20 21:37 | 41.25985 | 36.55482 | 68 ft | 7 kts | 314° |
| 2026-04-20 21:37 | 41.26019 | 36.55434 | 68 ft | 7 kts | 313° |
| 2026-04-20 21:37 | 41.26056 | 36.55380 | 68 ft | 9 kts | 313° |
| 2026-04-20 21:38 | 41.26099 | 36.55318 | 68 ft | 9 kts | 313° |
| 2026-04-20 21:38 | 41.26144 | 36.55254 | 69 ft | 9 kts | 314° |
| 2026-04-20 21:38 | 41.26201 | 36.55224 | 69 ft | 9 kts | 12° |
| 2026-04-20 21:38 | 41.26251 | 36.55273 | 69 ft | 9 kts | 43° |
| 2026-04-20 21:39 | 41.26297 | 36.55329 | 69 ft | 9 kts | 43° |
| 2026-04-20 21:39 | 41.26339 | 36.55384 | 70 ft | 8 kts | 53° |
| 2026-04-20 21:39 | 41.26348 | 36.55452 | 69 ft | 8 kts | 108° |
| 2026-04-20 21:39 | 41.26332 | 36.55483 | 69 ft | 0 kts | 134° |
| 2026-04-20 21:40 | 41.26329 | 36.55487 | 69 ft | 0 kts | 134° |
| 2026-04-20 21:40 | 41.26267 | 36.55572 | 68 ft | 42 kts | 134° |
| 2026-04-20 21:40 | 41.25910 | 36.56065 | 67 ft | 106 kts | 134° |
| 2026-04-20 21:41 | 41.25244 | 36.56995 | 28 ft | 169 kts | 133° |
| 2026-04-20 21:41 | 41.24392 | 36.58172 | 498 ft | 173 kts | 134° |
| 2026-04-20 21:41 | 41.23589 | 36.59318 | 1333 ft | 168 kts | 133° |
| 2026-04-20 21:41 | 41.22783 | 36.60490 | 1875 ft | 185 kts | 133° |
| 2026-04-20 21:42 | 41.21835 | 36.61814 | 2191 ft | 209 kts | 135° |
| 2026-04-20 21:42 | 41.20762 | 36.63281 | 2618 ft | 232 kts | 135° |
| 2026-04-20 21:42 | 41.19658 | 36.64907 | 3377 ft | 241 kts | 126° |
| 2026-04-20 21:42 | 41.18988 | 36.66963 | 4190 ft | 249 kts | 97° |
| 2026-04-20 21:43 | 41.19213 | 36.69263 | 4856 ft | 261 kts | 63° |
| 2026-04-20 21:43 | 41.20320 | 36.71202 | 5551 ft | 267 kts | 43° |
| 2026-04-20 21:43 | 41.21672 | 36.72902 | 6458 ft | 268 kts | 40° |
| 2026-04-20 21:43 | 41.23101 | 36.74506 | 7270 ft | 271 kts | 32° |